Terminal Aerodrome Forecast
Issued by NWS Pocatello, ID

Home | Current Version | Previous Version | Text Only | Print | Product List | Glossary On
Versions: 1 2 3 4 5 6 7 8 9 10 11 12 13 14 15
000
FTUS45 KPIH 210800 AAA
TAFIDA
TAF AMD
KIDA 210832Z 2109/2206 21008KT P6SM VCTS SCT080CB BKN110
     FM211200 17015KT P6SM -SHRA SCT025 BKN040 OVC060
     FM211500 21015G25KT P6SM VCSH SCT030 BKN050 OVC070
     FM211900 23022G32KT P6SM SCT070
     FM220000 21014KT P6SM SCT080 BKN200=

USA.gov is the U.S. government's official web portal to all federal, state and local government web resources and services.